Time;durP1;ratioP1;P1;durP2;ratioP2;P2;SDS_P1;SDS_P2;PMS_P1;PMS_P2;Temp;Humidity;BMP_temperature;BMP_pressure;BME280_temperature;BME280_humidity;BME280_pressure;Samples;Min_cycle;Max_cycle;Signal;HPM_P1;HPM_P2
2021/09/29 00:02:17;;;;;;;51.08;34.55;;;;;;;;;;6286129;28;20471;-70
2021/09/29 00:05:20;;;;;;;51.78;35.15;;;;;;;;;;6283006;28;20149;-71
2021/09/29 00:08:22;;;;;;;52.25;35.00;;;;;;;;;;6286810;28;20161;-68
2021/09/29 00:11:23;;;;;;;56.45;35.58;;;;;;;;;;6281504;28;20128;-69
2021/09/29 00:14:25;;;;;;;47.15;33.65;;;;;;;;;;6281019;28;20099;-68
2021/09/29 00:17:26;;;;;;;52.40;34.20;;;;;;;;;;6265649;28;20368;-68
2021/09/29 00:20:29;;;;;;;51.80;35.90;;;;;;;;;;6278188;28;20194;-68
2021/09/29 00:23:31;;;;;;;56.05;34.72;;;;;;;;;;6284789;28;20048;-71
2021/09/29 00:26:33;;;;;;;52.67;34.58;;;;;;;;;;6280370;28;20060;-68
2021/09/29 00:29:34;;;;;;;52.72;33.78;;;;;;;;;;6293303;28;20068;-68
2021/09/29 00:32:40;;;;;;;50.42;34.40;;;;;;;;;;6277304;28;20515;-68
2021/09/29 00:35:43;;;;;;;48.40;34.10;;;;;;;;;;6275085;28;20048;-68
2021/09/29 00:38:45;;;;;;;57.60;35.78;;;;;;;;;;6283093;28;20186;-68
2021/09/29 00:41:47;;;;;;;54.88;34.50;;;;;;;;;;6278097;28;20052;-68
2021/09/29 00:44:50;;;;;;;54.42;35.03;;;;;;;;;;6286523;28;20053;-68
2021/09/29 00:47:52;;;;;;;54.22;33.97;;;;;;;;;;6263653;28;20143;-68
2021/09/29 00:50:55;;;;;;;49.35;34.22;;;;;;;;;;6276654;28;20090;-70
2021/09/29 00:53:57;;;;;;;51.10;33.00;;;;;;;;;;6286335;28;20492;-68
2021/09/29 00:56:58;;;;;;;47.55;32.17;;;;;;;;;;6284417;28;20124;-68
2021/09/29 01:00:00;;;;;;;50.42;33.40;;;;;;;;;;6287839;28;20082;-68
2021/09/29 01:03:02;;;;;;;50.13;33.85;;;;;;;;;;6276493;28;20117;-68
2021/09/29 01:06:08;;;;;;;51.78;32.88;;;;;;;;;;6278730;28;20147;-70
2021/09/29 01:09:15;;;;;;;49.28;33.67;;;;;;;;;;6286010;28;20043;-68
2021/09/29 01:12:21;;;;;;;44.72;29.75;;;;;;;;;;6263103;28;20040;-68
2021/09/29 01:15:26;;;;;;;44.83;30.48;;;;;;;;;;6279391;28;20044;-71
2021/09/29 01:18:30;;;;;;;39.88;27.92;;;;;;;;;;6274466;28;20056;-68
2021/09/29 01:21:50;;;;;;;42.72;28.85;;;;;;;;;;6275882;28;20052;-68
2021/09/29 01:24:54;;;;;;;36.35;25.63;;;;;;;;;;6275985;28;20040;-68
2021/09/29 01:27:58;;;;;;;42.30;27.08;;;;;;;;;;6274918;28;20101;-68
2021/09/29 01:31:02;;;;;;;39.22;27.30;;;;;;;;;;6278085;28;20121;-70
2021/09/29 01:34:05;;;;;;;41.28;26.25;;;;;;;;;;6282393;28;20373;-68
2021/09/29 01:37:09;;;;;;;36.33;25.80;;;;;;;;;;6279569;28;20132;-68
2021/09/29 01:40:11;;;;;;;35.05;24.88;;;;;;;;;;6291356;28;20052;-71
2021/09/29 01:43:15;;;;;;;35.67;25.40;;;;;;;;;;6286539;28;20047;-68
2021/09/29 01:46:16;;;;;;;33.45;23.33;;;;;;;;;;6285342;28;20040;-68
2021/09/29 01:49:23;;;;;;;31.55;22.70;;;;;;;;;;6293740;28;20101;-68
2021/09/29 01:52:25;;;;;;;38.42;24.00;;;;;;;;;;6277516;28;20119;-71
2021/09/29 01:55:30;;;;;;;32.42;23.48;;;;;;;;;;6286072;28;20528;-69
2021/09/29 01:58:33;;;;;;;35.58;23.70;;;;;;;;;;6294736;28;20119;-68
2021/09/29 02:01:37;;;;;;;32.30;23.38;;;;;;;;;;6277285;28;20205;-70
2021/09/29 02:04:44;;;;;;;31.92;21.85;;;;;;;;;;6294964;28;20065;-68
2021/09/29 02:07:45;;;;;;;33.72;22.15;;;;;;;;;;6289430;28;20049;-68
2021/09/29 02:10:47;;;;;;;28.90;20.73;;;;;;;;;;6263852;28;20171;-68
2021/09/29 02:13:50;;;;;;;29.77;21.08;;;;;;;;;;6300122;28;20502;-68
2021/09/29 02:16:53;;;;;;;32.22;20.02;;;;;;;;;;6291614;28;20037;-68
2021/09/29 02:19:55;;;;;;;26.30;18.80;;;;;;;;;;6300283;28;20220;-68
2021/09/29 02:22:56;;;;;;;28.52;17.23;;;;;;;;;;6296258;28;20079;-69
2021/09/29 02:25:58;;;;;;;28.83;16.98;;;;;;;;;;6301627;28;20080;-69
2021/09/29 02:29:01;;;;;;;21.90;15.68;;;;;;;;;;6304863;28;20216;-68
2021/09/29 02:32:03;;;;;;;21.60;13.65;;;;;;;;;;6290256;28;20109;-67
2021/09/29 02:35:06;;;;;;;15.43;12.43;;;;;;;;;;6302089;28;20064;-72
2021/09/29 02:38:07;;;;;;;14.23;10.48;;;;;;;;;;6300978;28;20044;-68
2021/09/29 02:41:10;;;;;;;15.23;9.90;;;;;;;;;;6296970;28;20056;-68
2021/09/29 02:44:13;;;;;;;13.85;9.30;;;;;;;;;;6300813;28;20049;-68
2021/09/29 02:47:14;;;;;;;11.95;9.60;;;;;;;;;;6286964;28;20182;-72
2021/09/29 02:50:16;;;;;;;11.45;9.38;;;;;;;;;;6297366;28;20497;-71
2021/09/29 02:53:18;;;;;;;10.55;9.10;;;;;;;;;;6289488;28;20143;-70
2021/09/29 02:56:19;;;;;;;11.32;8.82;;;;;;;;;;6278763;28;20045;-69
2021/09/29 02:59:22;;;;;;;12.00;9.35;;;;;;;;;;6304389;28;20770;-69
2021/09/29 03:02:24;;;;;;;14.13;9.52;;;;;;;;;;6282831;28;20060;-70
2021/09/29 03:05:25;;;;;;;13.05;8.73;;;;;;;;;;6297749;28;20052;-71
2021/09/29 03:08:27;;;;;;;11.43;9.05;;;;;;;;;;6299407;28;20162;-68
2021/09/29 03:11:29;;;;;;;11.18;9.38;;;;;;;;;;6286196;28;20033;-71
2021/09/29 03:14:32;;;;;;;11.20;8.80;;;;;;;;;;6290122;28;20092;-69
2021/09/29 03:17:33;;;;;;;11.55;8.88;;;;;;;;;;6282095;28;20665;-68
2021/09/29 03:20:35;;;;;;;12.23;8.77;;;;;;;;;;6287867;28;20145;-70
2021/09/29 03:23:36;;;;;;;12.85;8.50;;;;;;;;;;6287668;28;20056;-68
2021/09/29 03:26:38;;;;;;;10.32;8.40;;;;;;;;;;6283227;28;20137;-68
2021/09/29 03:29:41;;;;;;;11.32;8.85;;;;;;;;;;6305493;28;20125;-68
2021/09/29 03:32:43;;;;;;;10.07;8.18;;;;;;;;;;6281094;28;20050;-70
2021/09/29 03:35:44;;;;;;;12.75;8.55;;;;;;;;;;6280655;28;20044;-69
2021/09/29 03:38:46;;;;;;;11.50;7.60;;;;;;;;;;6292741;28;20113;-68
2021/09/29 03:41:48;;;;;;;9.40;8.35;;;;;;;;;;6291133;28;20052;-68
2021/09/29 03:44:50;;;;;;;9.27;7.38;;;;;;;;;;6289309;28;20125;-68
2021/09/29 03:47:52;;;;;;;9.18;7.13;;;;;;;;;;6275153;28;20041;-68
2021/09/29 03:50:54;;;;;;;7.68;6.60;;;;;;;;;;6278980;28;20123;-68
2021/09/29 03:53:55;;;;;;;8.55;6.50;;;;;;;;;;6289989;28;20411;-69
2021/09/29 03:56:58;;;;;;;9.07;6.50;;;;;;;;;;6285458;28;20664;-68
2021/09/29 04:00:01;;;;;;;12.68;6.85;;;;;;;;;;6290545;28;20048;-68
2021/09/29 04:03:03;;;;;;;9.93;6.60;;;;;;;;;;6271838;28;20044;-68
2021/09/29 04:06:05;;;;;;;7.88;5.80;;;;;;;;;;6286050;28;20093;-68
2021/09/29 04:09:06;;;;;;;6.97;5.35;;;;;;;;;;6294488;28;20048;-68
2021/09/29 04:12:08;;;;;;;8.60;6.03;;;;;;;;;;6281141;28;20564;-68
2021/09/29 04:15:12;;;;;;;8.02;5.10;;;;;;;;;;6287070;28;20593;-70
2021/09/29 04:18:13;;;;;;;10.27;5.55;;;;;;;;;;6278206;28;20044;-68
2021/09/29 04:21:15;;;;;;;7.50;5.45;;;;;;;;;;6278187;28;20089;-68
2021/09/29 04:24:17;;;;;;;7.38;5.53;;;;;;;;;;6285920;28;20428;-68
2021/09/29 04:27:18;;;;;;;5.95;4.78;;;;;;;;;;6286451;28;20546;-68
2021/09/29 04:30:21;;;;;;;5.32;4.72;;;;;;;;;;6284553;28;20427;-70
2021/09/29 04:33:23;;;;;;;5.05;4.53;;;;;;;;;;6278342;28;20186;-71
2021/09/29 04:36:24;;;;;;;6.88;4.38;;;;;;;;;;6281867;28;20052;-68
2021/09/29 04:39:26;;;;;;;4.82;4.25;;;;;;;;;;6289631;28;20055;-68
2021/09/29 04:42:27;;;;;;;5.80;4.82;;;;;;;;;;6275995;28;20040;-68
2021/09/29 04:45:30;;;;;;;6.20;4.72;;;;;;;;;;6285132;28;20135;-68
2021/09/29 04:48:32;;;;;;;6.55;4.53;;;;;;;;;;6283081;28;20186;-68
2021/09/29 04:51:34;;;;;;;5.75;4.80;;;;;;;;;;6275986;28;20060;-68
2021/09/29 04:54:36;;;;;;;6.15;4.57;;;;;;;;;;6285347;28;20053;-68
2021/09/29 04:57:37;;;;;;;5.55;4.65;;;;;;;;;;6287041;28;20064;-68
2021/09/29 05:00:40;;;;;;;5.80;4.82;;;;;;;;;;6280661;28;20073;-68
2021/09/29 05:03:42;;;;;;;6.97;4.70;;;;;;;;;;6280784;28;20049;-68
2021/09/29 05:06:45;;;;;;;5.80;4.90;;;;;;;;;;6275479;28;20044;-68
2021/09/29 05:09:49;;;;;;;5.05;4.53;;;;;;;;;;6287320;28;20057;-68
2021/09/29 05:12:52;;;;;;;6.68;4.28;;;;;;;;;;6282967;28;20044;-68
2021/09/29 05:15:55;;;;;;;6.00;5.07;;;;;;;;;;6284690;28;20562;-68
2021/09/29 05:18:56;;;;;;;6.50;4.60;;;;;;;;;;6287973;28;20036;-68
2021/09/29 05:21:58;;;;;;;8.35;4.95;;;;;;;;;;6286430;28;20070;-68
2021/09/29 05:25:00;;;;;;;8.73;5.57;;;;;;;;;;6291677;28;20131;-67
2021/09/29 05:28:01;;;;;;;6.95;4.80;;;;;;;;;;6281045;28;20131;-69
2021/09/29 05:31:04;;;;;;;8.15;5.13;;;;;;;;;;6283726;28;20120;-69
2021/09/29 05:34:06;;;;;;;7.18;4.45;;;;;;;;;;6290269;28;20131;-68
2021/09/29 05:37:08;;;;;;;5.63;4.57;;;;;;;;;;6286047;28;20070;-67
2021/09/29 05:40:11;;;;;;;7.65;4.25;;;;;;;;;;6283383;28;20087;-71
2021/09/29 05:43:13;;;;;;;7.95;3.92;;;;;;;;;;6288896;28;20130;-68
2021/09/29 05:46:16;;;;;;;7.32;4.28;;;;;;;;;;6281264;28;20052;-68
2021/09/29 05:49:18;;;;;;;5.35;4.10;;;;;;;;;;6299178;28;20048;-66
2021/09/29 05:52:19;;;;;;;6.40;3.78;;;;;;;;;;6281125;28;20052;-67
2021/09/29 05:55:21;;;;;;;4.82;4.00;;;;;;;;;;6287687;28;20052;-71
2021/09/29 05:58:23;;;;;;;5.05;3.90;;;;;;;;;;6294112;28;20531;-68
2021/09/29 06:01:26;;;;;;;7.38;3.65;;;;;;;;;;6283332;28;20655;-68
2021/09/29 06:04:27;;;;;;;7.55;3.80;;;;;;;;;;6286135;28;20041;-68
2021/09/29 06:07:29;;;;;;;8.98;3.70;;;;;;;;;;6279913;28;20324;-72
2021/09/29 06:10:31;;;;;;;5.95;4.20;;;;;;;;;;6284035;28;20045;-71
2021/09/29 06:13:33;;;;;;;5.63;3.85;;;;;;;;;;6293004;28;20059;-68
2021/09/29 06:16:43;;;;;;;5.18;4.35;;;;;;;;;;6273299;28;20147;-69
2021/09/29 06:19:44;;;;;;;4.82;4.10;;;;;;;;;;6286509;28;20052;-69
2021/09/29 06:22:46;;;;;;;6.05;4.40;;;;;;;;;;6283756;28;20102;-69
2021/09/29 06:25:49;;;;;;;6.68;4.15;;;;;;;;;;6284845;28;20064;-68
2021/09/29 06:28:51;;;;;;;9.05;4.50;;;;;;;;;;6288259;28;20112;-70
2021/09/29 06:31:56;;;;;;;11.02;4.70;;;;;;;;;;6280891;28;20037;-69
2021/09/29 06:34:57;;;;;;;6.00;4.53;;;;;;;;;;6285312;28;20052;-69
2021/09/29 06:38:00;;;;;;;5.72;4.38;;;;;;;;;;6269179;28;21571;-68
2021/09/29 06:41:02;;;;;;;8.15;4.82;;;;;;;;;;6285189;28;20045;-69
2021/09/29 06:44:04;;;;;;;8.30;4.43;;;;;;;;;;6298942;28;20096;-68
2021/09/29 06:47:07;;;;;;;7.95;4.30;;;;;;;;;;6284827;28;20592;-69
2021/09/29 06:50:11;;;;;;;9.63;4.70;;;;;;;;;;6291606;28;20051;-70
2021/09/29 06:53:17;;;;;;;6.28;4.07;;;;;;;;;;6300973;28;20193;-68
2021/09/29 06:56:19;;;;;;;7.88;4.32;;;;;;;;;;6290705;28;20098;-69
2021/09/29 06:59:21;;;;;;;6.60;4.28;;;;;;;;;;6299531;28;20136;-69
2021/09/29 07:02:23;;;;;;;6.65;4.03;;;;;;;;;;6282818;28;20076;-68
2021/09/29 07:05:26;;;;;;;5.22;4.45;;;;;;;;;;6289581;28;20849;-71
2021/09/29 07:08:27;;;;;;;7.85;4.65;;;;;;;;;;6291417;28;20052;-69
2021/09/29 07:11:29;;;;;;;6.95;4.45;;;;;;;;;;6285883;28;20680;-69
2021/09/29 07:14:31;;;;;;;10.02;4.38;;;;;;;;;;6291514;28;20056;-68
2021/09/29 07:17:34;;;;;;;7.55;4.47;;;;;;;;;;6279726;28;20059;-69
2021/09/29 07:20:37;;;;;;;7.43;4.97;;;;;;;;;;6292632;28;20044;-69
2021/09/29 07:23:38;;;;;;;7.47;5.65;;;;;;;;;;6299191;28;20443;-69
2021/09/29 07:26:40;;;;;;;6.90;5.15;;;;;;;;;;6289453;28;20132;-69
2021/09/29 07:29:42;;;;;;;8.00;4.85;;;;;;;;;;6293826;28;20051;-69
2021/09/29 07:32:46;;;;;;;9.68;4.53;;;;;;;;;;6285700;28;20072;-69
2021/09/29 07:35:48;;;;;;;7.60;4.68;;;;;;;;;;6283535;28;20392;-68
2021/09/29 07:38:49;;;;;;;10.88;4.72;;;;;;;;;;6294024;28;20139;-69
2021/09/29 07:41:51;;;;;;;5.47;4.20;;;;;;;;;;6289926;28;20488;-68
2021/09/29 07:44:52;;;;;;;6.55;4.93;;;;;;;;;;6293110;28;20044;-69
2021/09/29 07:47:55;;;;;;;7.45;4.53;;;;;;;;;;6277636;28;20675;-69
2021/09/29 07:50:57;;;;;;;10.13;4.57;;;;;;;;;;6284701;28;20127;-69
2021/09/29 07:53:59;;;;;;;9.75;4.63;;;;;;;;;;6292804;28;20499;-69
2021/09/29 07:57:00;;;;;;;7.68;4.40;;;;;;;;;;6287065;28;20048;-70
2021/09/29 08:00:02;;;;;;;9.30;4.82;;;;;;;;;;6294971;28;20125;-69
2021/09/29 08:03:05;;;;;;;8.57;5.35;;;;;;;;;;6281246;28;20066;-69
2021/09/29 08:06:07;;;;;;;10.70;5.07;;;;;;;;;;6305194;28;20044;-69
2021/09/29 08:09:09;;;;;;;8.90;4.70;;;;;;;;;;6298572;28;20488;-69
2021/09/29 08:12:10;;;;;;;5.45;4.63;;;;;;;;;;6286578;28;20052;-69
2021/09/29 08:15:13;;;;;;;9.82;4.72;;;;;;;;;;6288893;28;20111;-71
2021/09/29 08:18:16;;;;;;;9.18;4.57;;;;;;;;;;6281661;28;20131;-69
2021/09/29 08:21:23;;;;;;;8.35;4.85;;;;;;;;;;6286641;28;20593;-69
2021/09/29 08:24:35;;;;;;;6.80;5.28;;;;;;;;;;6299749;28;20048;-70
2021/09/29 08:27:46;;;;;;;8.80;5.05;;;;;;;;;;6292242;28;20126;-69
2021/09/29 08:30:58;;;;;;;5.85;4.60;;;;;;;;;;6295171;28;20192;-68
2021/09/29 08:34:15;;;;;;;8.57;4.80;;;;;;;;;;6302737;28;20124;-70
2021/09/29 08:40:53;;;;;;;6.32;4.93;;;;;;;;;;6288730;28;20819;-69
2021/09/29 08:44:00;;;;;;;6.35;4.40;;;;;;;;;;6291046;28;20055;-69
2021/09/29 08:47:12;;;;;;;6.43;4.95;;;;;;;;;;6259265;28;20041;-69
2021/09/29 08:50:21;;;;;;;8.77;4.70;;;;;;;;;;6300602;28;20115;-71
2021/09/29 08:56:59;;;;;;;5.07;4.15;;;;;;;;;;6279569;28;20127;-69
2021/09/29 09:16:40;;;;;;;13.98;4.68;;;;;;;;;;6277380;28;20044;-70
2021/09/29 09:19:42;;;;;;;4.88;3.90;;;;;;;;;;6295577;28;20044;-69
2021/09/29 09:22:50;;;;;;;7.18;4.80;;;;;;;;;;6292839;28;20365;-69
2021/09/29 09:25:51;;;;;;;9.48;4.57;;;;;;;;;;6293779;28;20043;-69
2021/09/29 09:29:04;;;;;;;8.10;4.82;;;;;;;;;;6304579;28;20119;-69
2021/09/29 09:32:07;;;;;;;7.25;4.45;;;;;;;;;;6288079;28;20143;-69
2021/09/29 09:35:11;;;;;;;5.18;3.90;;;;;;;;;;6297537;28;20050;-71
2021/09/29 09:38:19;;;;;;;5.47;4.38;;;;;;;;;;6292739;28;20060;-69
2021/09/29 09:41:21;;;;;;;7.82;4.80;;;;;;;;;;6289965;28;20102;-69
2021/09/29 09:44:24;;;;;;;6.72;4.60;;;;;;;;;;6299432;28;20048;-69
2021/09/29 09:47:26;;;;;;;6.85;4.10;;;;;;;;;;6289226;28;20040;-69
2021/09/29 09:50:29;;;;;;;4.78;4.22;;;;;;;;;;6288670;28;20133;-69
2021/09/29 09:53:32;;;;;;;4.88;4.10;;;;;;;;;;6302948;28;20045;-69
2021/09/29 09:56:34;;;;;;;7.10;4.50;;;;;;;;;;6292206;28;20683;-69
2021/09/29 09:59:36;;;;;;;4.53;3.77;;;;;;;;;;6293867;28;20070;-70
2021/09/29 10:02:39;;;;;;;7.97;4.40;;;;;;;;;;6283050;28;20485;-70
2021/09/29 10:05:42;;;;;;;6.57;4.95;;;;;;;;;;6287917;28;20052;-70
2021/09/29 10:08:49;;;;;;;4.93;3.50;;;;;;;;;;6292908;28;20461;-69
2021/09/29 10:12:00;;;;;;;7.63;4.13;;;;;;;;;;6290411;28;20312;-70
2021/09/29 10:28:20;;;;;;;27.92;25.27;;;;;;;;;;6293510;28;19924;-70
2021/09/29 10:31:39;;;;;;;;;;;;;;;;;;6288000;28;20143;-70
2021/09/29 10:34:55;;;;;;;7.38;4.70;;;;;;;;;;6292118;28;19927;-70
2021/09/29 10:40:15;;;;;;;4.80;4.30;;;;;;;;;;6286199;28;20061;-70
2021/09/29 10:41:38;;;;;;;5.90;4.35;;;;;;;;;;6286736;28;20060;-72
2021/09/29 10:48:29;;;;;;;8.30;4.40;;;;;;;;;;6292253;28;20037;-71
2021/09/29 10:51:53;;;;;;;4.53;4.10;;;;;;;;;;6295619;28;20041;-70
2021/09/29 11:05:27;;;;;;;4.78;4.20;;;;;;;;;;6300700;28;20147;-72
2021/09/29 11:32:29;;;;;;;8.25;5.10;;;;;;;;;;6243551;28;20056;-71
2021/09/29 11:35:43;;;;;;;6.95;4.28;;;;;;;;;;6283408;28;20170;-71
2021/09/29 12:09:03;;;;;;;6.25;5.00;;;;;;;;;;6291079;28;20484;-70
2021/09/29 12:12:15;;;;;;;5.13;4.60;;;;;;;;;;6286474;28;20067;-71
2021/09/29 12:15:17;;;;;;;5.15;4.65;;;;;;;;;;6285591;28;20048;-72
2021/09/29 12:18:21;;;;;;;5.85;4.35;;;;;;;;;;6280118;28;20044;-74
2021/09/29 12:21:38;;;;;;;5.85;4.82;;;;;;;;;;6284476;28;20190;-71
2021/09/29 12:24:44;;;;;;;4.88;4.38;;;;;;;;;;6294307;28;20055;-71
2021/09/29 12:27:51;;;;;;;9.05;5.22;;;;;;;;;;6285354;28;20102;-73
2021/09/29 12:31:19;;;;;;;5.85;4.15;;;;;;;;;;6272952;28;20072;-71
2021/09/29 12:34:28;;;;;;;4.47;3.83;;;;;;;;;;6270690;28;20040;-71
2021/09/29 12:37:31;;;;;;;7.85;5.28;;;;;;;;;;6282176;28;20141;-69
2021/09/29 12:40:35;;;;;;;6.43;4.32;;;;;;;;;;6284700;28;20101;-74
2021/09/29 12:43:36;;;;;;;4.70;4.07;;;;;;;;;;6292187;28;20126;-71
2021/09/29 12:46:38;;;;;;;5.88;4.28;;;;;;;;;;6276427;28;20179;-71
2021/09/29 12:49:40;;;;;;;5.40;3.35;;;;;;;;;;6282949;28;20479;-71
2021/09/29 12:52:53;;;;;;;8.30;3.78;;;;;;;;;;6279131;28;20078;-71
2021/09/29 12:55:58;;;;;;;4.00;3.60;;;;;;;;;;6278260;28;20101;-69
2021/09/29 12:59:00;;;;;;;5.60;4.30;;;;;;;;;;6287736;28;20049;-69
2021/09/29 13:02:01;;;;;;;;;;;;;;;;;;6281562;28;20055;-71
2021/09/29 13:05:03;;;;;;;4.67;4.03;;;;;;;;;;6276588;28;19951;-68
2021/09/29 13:08:06;;;;;;;;;;;;;;;;;;6274828;28;20117;-69
2021/09/29 13:11:07;;;;;;;4.78;4.03;;;;;;;;;;6277885;28;20372;-73
2021/09/29 13:14:09;;;;;;;6.88;3.88;;;;;;;;;;6287088;28;20131;-69
2021/09/29 13:17:11;;;;;;;5.78;3.97;;;;;;;;;;6268589;28;20491;-70
2021/09/29 13:20:17;;;;;;;4.93;4.10;;;;;;;;;;6277467;28;20049;-73
2021/09/29 13:23:27;;;;;;;5.78;4.00;;;;;;;;;;6285082;28;20396;-74
2021/09/29 13:36:35;;;;;;;7.07;4.32;;;;;;;;;;6277876;28;20063;-69
2021/09/29 13:39:39;;;;;;;7.63;3.95;;;;;;;;;;6287869;28;20048;-69
2021/09/29 13:42:40;;;;;;;5.15;4.28;;;;;;;;;;6284146;28;20103;-70
2021/09/29 13:45:42;;;;;;;4.28;3.88;;;;;;;;;;6293332;28;20076;-70
2021/09/29 13:48:44;;;;;;;5.13;3.72;;;;;;;;;;6290642;28;20033;-71
2021/09/29 13:51:47;;;;;;;;;;;;;;;;;;6289225;28;20051;-71
2021/09/29 13:54:52;;;;;;;5.30;3.90;;;;;;;;;;6280337;28;20007;-71
2021/09/29 13:57:58;;;;;;;5.22;4.07;;;;;;;;;;6281824;28;20055;-70
2021/09/29 14:01:16;;;;;;;4.20;3.80;;;;;;;;;;6269837;28;20037;-70
2021/09/29 14:30:55;;;;;;;9.65;7.80;;;;;;;;;;6273059;28;20048;-70
2021/09/29 14:33:57;;;;;;;8.60;3.88;;;;;;;;;;6277792;28;20052;-67
2021/09/29 14:36:58;;;;;;;40.78;32.83;;;;;;;;;;6283403;28;20365;-67
2021/09/29 14:40:00;;;;;;;8.40;7.57;;;;;;;;;;6293587;28;20148;-67
2021/09/29 14:43:03;;;;;;;5.10;4.15;;;;;;;;;;6285936;28;20055;-69
2021/09/29 14:46:06;;;;;;;4.90;4.43;;;;;;;;;;6287347;28;20108;-70
2021/09/29 14:49:08;;;;;;;7.95;5.03;;;;;;;;;;6289710;28;20048;-66
2021/09/29 14:52:11;;;;;;;6.55;4.43;;;;;;;;;;6287468;28;20214;-67
2021/09/29 14:55:12;;;;;;;6.43;4.53;;;;;;;;;;6285731;28;20108;-70
2021/09/29 14:58:15;;;;;;;5.63;4.35;;;;;;;;;;6278497;28;20079;-66
2021/09/29 15:01:17;;;;;;;4.85;4.45;;;;;;;;;;6269333;28;20130;-65
2021/09/29 15:04:18;;;;;;;6.28;4.60;;;;;;;;;;6287108;28;20376;-65
2021/09/29 15:07:20;;;;;;;5.10;4.53;;;;;;;;;;6279223;28;20071;-65
2021/09/29 15:10:22;;;;;;;5.07;4.47;;;;;;;;;;6281910;28;20052;-72
2021/09/29 15:13:27;;;;;;;10.82;5.32;;;;;;;;;;6288713;28;21066;-66
2021/09/29 15:16:31;;;;;;;8.27;4.75;;;;;;;;;;6283192;28;20055;-65
2021/09/29 15:19:41;;;;;;;7.45;4.60;;;;;;;;;;6289854;28;20044;-66
2021/09/29 15:26:34;;;;;;;7.55;4.85;;;;;;;;;;6275953;28;20083;-66
2021/09/29 15:29:53;;;;;;;7.80;4.93;;;;;;;;;;6289549;28;20033;-67
2021/09/29 15:46:46;;;;;;;4.95;4.45;;;;;;;;;;6279701;28;20049;-66
2021/09/29 15:50:01;;;;;;;6.75;5.05;;;;;;;;;;6291825;28;20480;-67
2021/09/29 15:56:42;;;;;;;5.15;4.65;;;;;;;;;;6252463;28;20086;-65
2021/09/29 16:03:09;;;;;;;5.82;4.88;;;;;;;;;;6262789;28;20048;-67
2021/09/29 16:06:29;;;;;;;6.07;4.50;;;;;;;;;;6282446;28;20045;-67
2021/09/29 16:16:22;;;;;;;6.75;4.25;;;;;;;;;;6262503;28;20461;-75
2021/09/29 16:19:57;;;;;;;7.60;4.90;;;;;;;;;;6282291;28;20051;-69
2021/09/29 16:33:26;;;;;;;6.78;5.20;;;;;;;;;;6274484;28;20496;-67
2021/09/29 16:36:29;;;;;;;6.07;5.47;;;;;;;;;;6269548;28;20055;-71
2021/09/29 16:39:32;;;;;;;9.68;6.53;;;;;;;;;;6288532;28;20074;-67
2021/09/29 16:42:34;;;;;;;6.95;5.03;;;;;;;;;;6282149;28;20419;-67
2021/09/29 16:45:37;;;;;;;7.90;5.45;;;;;;;;;;6280454;28;20480;-67
2021/09/29 16:48:38;;;;;;;;;;;;;;;;;;6285857;28;20137;-67
2021/09/29 16:51:44;;;;;;;5.82;4.85;;;;;;;;;;6287416;28;20003;-67
2021/09/29 16:54:46;;;;;;;6.25;5.20;;;;;;;;;;6294461;28;20585;-68
2021/09/29 16:57:50;;;;;;;7.72;4.95;;;;;;;;;;6284170;28;20186;-67
2021/09/29 17:00:54;;;;;;;7.05;4.90;;;;;;;;;;6283459;28;20098;-68
2021/09/29 17:03:57;;;;;;;5.25;4.65;;;;;;;;;;6290169;28;20044;-66
2021/09/29 17:07:00;;;;;;;7.97;6.13;;;;;;;;;;6294757;28;20040;-68
2021/09/29 17:10:01;;;;;;;;;;;;;;;;;;6302755;28;20135;-69
2021/09/29 17:13:03;;;;;;;10.88;6.88;;;;;;;;;;6290796;28;19939;-67
2021/09/29 17:16:05;;;;;;;8.60;6.00;;;;;;;;;;6283849;28;20040;-72
2021/09/29 17:19:07;;;;;;;12.03;7.00;;;;;;;;;;6281183;28;20194;-67
2021/09/29 17:22:11;;;;;;;8.40;6.63;;;;;;;;;;6287038;28;20072;-67
2021/09/29 17:25:12;;;;;;;12.25;7.78;;;;;;;;;;6293168;28;20052;-74
2021/09/29 17:28:17;;;;;;;7.38;5.78;;;;;;;;;;6293204;28;20225;-68
2021/09/29 17:31:23;;;;;;;6.60;5.50;;;;;;;;;;6291005;28;20055;-67
2021/09/29 17:34:33;;;;;;;8.52;5.60;;;;;;;;;;6290436;28;20093;-71
2021/09/29 17:37:54;;;;;;;8.45;6.32;;;;;;;;;;6246321;28;20040;-69
2021/09/29 17:54:20;;;;;;;8.07;4.93;;;;;;;;;;6281905;28;20477;-70
2021/09/29 17:57:23;;;;;;;11.02;5.57;;;;;;;;;;6275333;28;20060;-70
2021/09/29 18:00:26;;;;;;;7.97;5.80;;;;;;;;;;6277036;28;20048;-74
2021/09/29 18:03:31;;;;;;;;;;;;;;;;;;6275206;28;20045;-67
2021/09/29 18:06:37;;;;;;;5.35;4.78;;;;;;;;;;6273301;28;19947;-70
2021/09/29 18:09:40;;;;;;;5.97;4.78;;;;;;;;;;6281690;28;20171;-67
2021/09/29 18:12:42;;;;;;;7.95;4.97;;;;;;;;;;6277965;28;20123;-68
2021/09/29 18:15:44;;;;;;;7.28;6.03;;;;;;;;;;6274758;28;20128;-72
2021/09/29 18:18:46;;;;;;;15.10;8.07;;;;;;;;;;6273501;28;20480;-68
2021/09/29 18:21:48;;;;;;;8.85;6.03;;;;;;;;;;6274417;28;20443;-68
2021/09/29 18:24:51;;;;;;;7.28;5.82;;;;;;;;;;6251677;28;20079;-68
2021/09/29 18:27:53;;;;;;;8.07;5.03;;;;;;;;;;6273155;28;20559;-69
2021/09/29 18:30:57;;;;;;;10.40;6.25;;;;;;;;;;6279716;28;20052;-68
2021/09/29 18:34:00;;;;;;;11.65;5.82;;;;;;;;;;6288921;28;20045;-67
2021/09/29 18:37:05;;;;;;;9.85;6.00;;;;;;;;;;6277739;28;20052;-73
2021/09/29 18:40:09;;;;;;;9.10;5.80;;;;;;;;;;6290634;28;20048;-74
2021/09/29 18:43:11;;;;;;;9.32;6.25;;;;;;;;;;6289644;28;20041;-68
2021/09/29 18:46:13;;;;;;;7.93;6.60;;;;;;;;;;6280296;28;20092;-72
2021/09/29 18:49:16;;;;;;;11.27;6.03;;;;;;;;;;6287274;28;20044;-72
2021/09/29 18:52:18;;;;;;;9.65;6.68;;;;;;;;;;6284922;28;20059;-70
2021/09/29 18:55:24;;;;;;;9.27;6.13;;;;;;;;;;6294248;28;20547;-73
2021/09/29 19:08:39;;;;;;;9.63;5.90;;;;;;;;;;6237003;28;20132;-70
2021/09/29 19:11:42;;;;;;;9.38;6.43;;;;;;;;;;6280153;28;20082;-70
2021/09/29 19:14:44;;;;;;;11.23;7.18;;;;;;;;;;6286988;28;20044;-69
2021/09/29 19:17:45;;;;;;;13.35;6.80;;;;;;;;;;6273427;28;20097;-69
2021/09/29 19:20:47;;;;;;;9.52;6.72;;;;;;;;;;6273623;28;20202;-69
2021/09/29 19:23:49;;;;;;;8.07;6.32;;;;;;;;;;6288353;28;20136;-68
2021/09/29 19:26:52;;;;;;;10.52;6.90;;;;;;;;;;6278714;28;20386;-68
2021/09/29 19:29:53;;;;;;;;;;;;;;;;;;6288432;28;20060;-69
2021/09/29 19:32:58;;;;;;;10.90;7.30;;;;;;;;;;6276324;28;19920;-69
2021/09/29 19:35:59;;;;;;;9.18;7.55;;;;;;;;;;6276598;28;20037;-69
2021/09/29 19:39:02;;;;;;;12.52;9.35;;;;;;;;;;6291704;28;20044;-69
2021/09/29 19:42:05;;;;;;;13.85;9.32;;;;;;;;;;6289868;28;20044;-69
2021/09/29 19:45:10;;;;;;;11.02;8.18;;;;;;;;;;6287157;28;20120;-69
2021/09/29 19:48:14;;;;;;;10.18;8.45;;;;;;;;;;6273166;28;20060;-69
2021/09/29 19:51:32;;;;;;;9.88;8.68;;;;;;;;;;6281726;28;20044;-69
2021/09/29 20:08:03;;;;;;;9.13;7.28;;;;;;;;;;6287031;28;20044;-70
2021/09/29 20:11:05;;;;;;;10.45;8.68;;;;;;;;;;6275396;28;20126;-69
2021/09/29 20:14:11;;;;;;;11.18;8.00;;;;;;;;;;6288639;28;20040;-69
2021/09/29 20:17:13;;;;;;;22.77;14.13;;;;;;;;;;6279225;28;20047;-69
2021/09/29 20:20:16;;;;;;;15.73;9.20;;;;;;;;;;6293151;28;20051;-70
2021/09/29 20:23:18;;;;;;;;;;;;;;;;;;6290773;28;20125;-69
2021/09/29 20:26:20;;;;;;;9.25;7.68;;;;;;;;;;6279072;28;19931;-69
2021/09/29 20:29:23;;;;;;;10.15;7.85;;;;;;;;;;6292907;28;20737;-69
2021/09/29 20:32:25;;;;;;;7.82;6.68;;;;;;;;;;6274591;28;20051;-69
2021/09/29 20:36:01;;;;;;;8.05;7.13;;;;;;;;;;6274779;28;20044;-69
2021/09/29 20:43:04;;;;;;;7.88;6.35;;;;;;;;;;6273911;28;20036;-69
2021/09/29 20:45:49;;;;;;;10.90;7.25;;;;;;;;;;6271234;28;20063;-69
2021/09/29 20:48:50;;;;;;;8.73;6.68;;;;;;;;;;6284300;28;20538;-69
2021/09/29 20:51:52;;;;;;;11.73;7.35;;;;;;;;;;6284233;28;20053;-69
2021/09/29 20:54:54;;;;;;;8.68;6.47;;;;;;;;;;6285032;28;20049;-69
2021/09/29 20:57:58;;;;;;;9.55;6.25;;;;;;;;;;6282208;28;20059;-69
2021/09/29 21:01:00;;;;;;;;;;;;;;;;;;6271549;28;20131;-69
2021/09/29 21:04:02;;;;;;;12.55;8.05;;;;;;;;;;6281643;28;20085;-69
2021/09/29 21:07:04;;;;;;;8.43;6.53;;;;;;;;;;6281630;28;20146;-69
2021/09/29 21:10:08;;;;;;;9.20;7.03;;;;;;;;;;6294249;28;20041;-71
2021/09/29 21:13:14;;;;;;;10.77;6.80;;;;;;;;;;6280121;28;20041;-69
2021/09/29 21:16:28;;;;;;;8.43;6.82;;;;;;;;;;6281382;28;20532;-69
2021/09/29 21:19:29;;;;;;;8.98;6.78;;;;;;;;;;6275647;28;20045;-69
2021/09/29 21:22:31;;;;;;;8.15;6.55;;;;;;;;;;6283907;28;20135;-69
2021/09/29 21:25:33;;;;;;;9.02;6.85;;;;;;;;;;6280454;28;20058;-70
2021/09/29 21:28:34;;;;;;;9.18;7.05;;;;;;;;;;6289193;28;20063;-69
2021/09/29 21:31:37;;;;;;;8.45;6.53;;;;;;;;;;6275138;28;20454;-70
2021/09/29 21:34:40;;;;;;;12.65;6.50;;;;;;;;;;6285410;28;20131;-69
2021/09/29 21:37:46;;;;;;;8.20;5.87;;;;;;;;;;6273416;28;20099;-69
2021/09/29 21:41:14;;;;;;;8.68;6.35;;;;;;;;;;6282670;28;20044;-69
2021/09/29 21:47:57;;;;;;;8.23;6.30;;;;;;;;;;6273179;28;20052;-69
2021/09/29 22:01:22;;;;;;;9.73;6.47;;;;;;;;;;6269035;28;20596;-69
2021/09/29 22:04:37;;;;;;;10.82;6.47;;;;;;;;;;6297454;28;20772;-69
2021/09/29 22:14:34;;;;;;;10.40;6.82;;;;;;;;;;6288189;28;20052;-69
2021/09/29 23:04:53;;;;;;;8.93;6.20;;;;;;;;;;6291538;28;20052;-69
2021/09/29 23:07:59;;;;;;;11.05;6.35;;;;;;;;;;6288623;28;20064;-69
2021/09/29 23:11:08;;;;;;;12.02;6.50;;;;;;;;;;6292568;28;20500;-69
2021/09/29 23:14:29;;;;;;;9.48;6.68;;;;;;;;;;6291836;28;20059;-69